Terminal Aerodrome Forecast
Issued by NWS

Home | Current Version | Previous Version | Text Only | Print | Product List | Glossary On
Versions: 1 2 3 4 5 6 7 8 9 10 11 12 13 14 15 16 17 18 19 20
000
FTAK31 PAJN 032322
TAFAWG
TAF
PAWG 032322Z 0400/0424 33006KT P6SM VCSH SCT005 BKN035
     FM040600 00000KT P6SM -SHRA SCT020 BKN040
     FM041200 VRB03KT 6SM -SHRA BR SCT012 BKN025
     FM041500 VRB04KT P6SM -SHRA SCT020 BKN040=

USA.gov is the U.S. government's official web portal to all federal, state and local government web resources and services.